Time;durP1;ratioP1;P1;durP2;ratioP2;P2;SDS_P1;SDS_P2;PMS_P1;PMS_P2;Temp;Humidity;BMP_temperature;BMP_pressure;BME280_temperature;BME280_humidity;BME280_pressure;Samples;Min_cycle;Max_cycle;Signal;HPM_P1;HPM_P2
2023/12/05 00:00:44;;;;;;;15.25;3.00;;;22.30;52.10;;;;;;4971052;28;20035;-61
2023/12/05 00:03:12;;;;;;;16.98;3.30;;;22.20;52.50;;;;;;4971177;28;20387;-56
2023/12/05 00:05:38;;;;;;;22.10;3.40;;;22.20;52.60;;;;;;4969863;28;20050;-57
2023/12/05 00:08:05;;;;;;;35.92;4.07;;;22.10;53.20;;;;;;4971458;28;20046;-60
2023/12/05 00:10:31;;;;;;;31.57;3.93;;;22.10;53.50;;;;;;4970742;28;20080;-59
2023/12/05 00:13:00;;;;;;;33.38;3.40;;;21.90;54.30;;;;;;4971046;28;20035;-56
2023/12/05 00:15:26;;;;;;;32.08;3.70;;;21.90;54.40;;;;;;4972376;28;20043;-57
2023/12/05 00:17:53;;;;;;;31.02;3.88;;;21.80;55.10;;;;;;4972808;28;20053;-56
2023/12/05 00:20:19;;;;;;;31.52;5.50;;;21.70;55.70;;;;;;4970505;28;20057;-59
2023/12/05 00:22:46;;;;;;;16.25;4.38;;;21.60;56.40;;;;;;4970108;28;20047;-58
2023/12/05 00:25:12;;;;;;;19.50;3.65;;;21.50;56.60;;;;;;4970179;28;20045;-57
2023/12/05 00:27:39;;;;;;;26.08;4.20;;;21.30;57.10;;;;;;4970783;28;20050;-58
2023/12/05 00:30:06;;;;;;;21.83;3.40;;;21.20;57.60;;;;;;4972632;28;20090;-60
2023/12/05 00:32:32;;;;;;;22.27;3.65;;;21.10;58.00;;;;;;4970291;28;20054;-58
2023/12/05 00:34:59;;;;;;;19.33;3.78;;;20.90;58.30;;;;;;4970243;28;20050;-61
2023/12/05 00:37:25;;;;;;;27.33;3.30;;;20.80;58.70;;;;;;4971339;28;20048;-60
2023/12/05 00:39:52;;;;;;;24.05;3.80;;;20.70;59.20;;;;;;4969640;28;20126;-60
2023/12/05 00:42:18;;;;;;;22.23;3.38;;;20.60;59.40;;;;;;4970897;28;20498;-60
2023/12/05 00:44:45;;;;;;;22.77;3.78;;;20.50;60.70;;;;;;4971629;28;20079;-63
2023/12/05 00:47:11;;;;;;;16.88;3.63;;;20.40;60.30;;;;;;4970829;28;20059;-60
2023/12/05 00:49:38;;;;;;;23.88;4.47;;;20.30;60.40;;;;;;4971757;28;20108;-60
2023/12/05 00:52:05;;;;;;;23.77;3.55;;;20.20;60.90;;;;;;4970654;28;20141;-58
2023/12/05 00:54:31;;;;;;;27.45;3.65;;;20.00;61.40;;;;;;4971122;28;20051;-60
2023/12/05 00:56:57;;;;;;;33.60;4.10;;;19.90;62.20;;;;;;4969948;28;20104;-58
2023/12/05 00:59:24;;;;;;;27.98;4.45;;;19.80;62.90;;;;;;4971654;28;20058;-61
2023/12/05 01:01:50;;;;;;;33.75;4.68;;;19.70;63.40;;;;;;4970214;28;20131;-59
2023/12/05 01:04:17;;;;;;;32.50;5.28;;;19.60;63.50;;;;;;4970293;28;20081;-61
2023/12/05 01:06:44;;;;;;;38.08;5.70;;;19.50;64.40;;;;;;4970942;28;20542;-63
2023/12/05 01:09:10;;;;;;;43.58;6.57;;;19.40;65.00;;;;;;4971970;28;20467;-63
2023/12/05 01:11:37;;;;;;;52.70;6.13;;;19.30;65.30;;;;;;4969329;28;20099;-60
2023/12/05 01:14:03;;;;;;;31.05;6.30;;;19.20;66.20;;;;;;4969858;28;20476;-60
2023/12/05 01:16:30;;;;;;;46.05;6.10;;;19.20;66.90;;;;;;4970269;28;20059;-61
2023/12/05 01:18:56;;;;;;;47.10;6.63;;;19.10;67.30;;;;;;4971551;28;20108;-60
2023/12/05 01:21:23;;;;;;;35.50;6.15;;;19.00;67.20;;;;;;4969809;28;20066;-60
2023/12/05 01:23:49;;;;;;;42.25;5.90;;;18.90;67.60;;;;;;4970887;28;20773;-61
2023/12/05 01:26:16;;;;;;;38.58;5.88;;;18.90;67.90;;;;;;4970542;28;20073;-59
2023/12/05 01:28:42;;;;;;;37.22;6.75;;;18.80;68.40;;;;;;4971236;28;20103;-59
2023/12/05 01:31:09;;;;;;;61.30;7.72;;;18.80;69.00;;;;;;4969399;28;20084;-59
2023/12/05 01:33:35;;;;;;;50.13;7.82;;;18.70;69.70;;;;;;4970806;28;20056;-60
2023/12/05 01:36:01;;;;;;;57.83;13.52;;;18.60;69.50;;;;;;4969526;28;20068;-60
2023/12/05 01:38:28;;;;;;;57.33;14.18;;;18.50;69.40;;;;;;4970280;28;20059;-61
2023/12/05 01:40:54;;;;;;;75.97;13.18;;;18.50;69.80;;;;;;4969417;28;20057;-62
2023/12/05 01:43:21;;;;;;;63.53;13.88;;;18.40;70.00;;;;;;4970853;28;20423;-60
2023/12/05 01:45:48;;;;;;;57.58;12.10;;;18.40;70.30;;;;;;4970846;28;20058;-60
2023/12/05 01:48:15;;;;;;;90.90;13.02;;;18.30;70.70;;;;;;4970101;28;20150;-61
2023/12/05 01:50:43;;;;;;;77.93;12.20;;;18.30;71.20;;;;;;4969895;28;20658;-61
2023/12/05 01:53:10;;;;;;;74.30;11.90;;;18.20;71.50;;;;;;4970080;28;20096;-60
2023/12/05 01:55:37;;;;;;;67.03;11.73;;;18.20;72.10;;;;;;4974702;28;20055;-60
2023/12/05 01:58:07;;;;;;;64.72;11.63;;;18.20;73.00;;;;;;4973625;28;20061;-61
2023/12/05 02:00:34;;;;;;;67.55;9.60;;;18.10;74.10;;;;;;4974130;28;20127;-62
2023/12/05 02:03:00;;;;;;;65.88;10.43;;;18.10;75.00;;;;;;4973474;28;20059;-60
2023/12/05 02:05:27;;;;;;;62.28;9.13;;;18.10;75.70;;;;;;4971165;28;20151;-61
2023/12/05 02:07:54;;;;;;;68.80;10.15;;;18.00;76.70;;;;;;4972901;28;20057;-60
2023/12/05 02:10:23;;;;;;;68.90;9.52;;;17.90;77.50;;;;;;4972989;28;20071;-60
2023/12/05 02:12:50;;;;;;;67.75;9.73;;;17.90;78.00;;;;;;4972983;28;20088;-61
2023/12/05 02:15:16;;;;;;;57.55;8.07;;;17.80;78.70;;;;;;4973734;28;20054;-62
2023/12/05 02:17:53;;;;;;;84.32;12.05;;;17.80;79.40;;;;;;4972227;28;20068;-60
2023/12/05 02:20:41;;;;;;;134.32;16.27;;;17.70;80.30;;;;;;4973742;28;20052;-59
2023/12/05 02:23:31;;;;;;;122.30;17.45;;;17.70;80.50;;;;;;4972009;28;20116;-61
2023/12/05 02:25:57;;;;;;;109.55;12.95;;;17.60;80.80;;;;;;4967241;28;20068;-62
2023/12/05 02:28:27;;;;;;;81.25;10.82;;;17.60;81.30;;;;;;4973933;28;20179;-59
2023/12/05 02:30:53;;;;;;;60.45;9.88;;;17.50;81.70;;;;;;4972754;28;20091;-60
2023/12/05 02:33:20;;;;;;;77.15;10.05;;;17.40;82.30;;;;;;4973000;28;20197;-60
2023/12/05 02:36:07;;;;;;;57.58;11.10;;;17.40;82.90;;;;;;4972913;28;20417;-61
2023/12/05 02:38:57;;;;;;;62.22;13.07;;;17.30;82.90;;;;;;4971693;28;20064;-60
2023/12/05 02:41:30;;;;;;;66.60;17.65;;;17.20;83.20;;;;;;4971658;28;20062;-60
2023/12/05 02:44:06;;;;;;;77.32;24.10;;;17.20;84.00;;;;;;4973048;28;20065;-62
2023/12/05 02:46:35;;;;;;;81.25;24.33;;;17.10;84.80;;;;;;4973165;28;20111;-62
2023/12/05 02:49:04;;;;;;;61.15;18.10;;;17.10;85.70;;;;;;4973898;28;20602;-62
2023/12/05 02:51:30;;;;;;;59.53;14.55;;;17.10;86.30;;;;;;4974919;28;20220;-62
2023/12/05 02:54:01;;;;;;;63.67;12.70;;;17.20;87.00;;;;;;4973073;28;20392;-62
2023/12/05 02:56:29;;;;;;;40.90;9.77;;;17.20;87.60;;;;;;4970293;28;20095;-62
2023/12/05 02:58:55;;;;;;;60.42;10.48;;;17.10;87.90;;;;;;4971712;28;20986;-64
2023/12/05 03:01:22;;;;;;;57.97;9.88;;;17.10;88.20;;;;;;4973666;28;20068;-61
2023/12/05 03:03:48;;;;;;;70.50;11.95;;;17.00;88.50;;;;;;4971943;28;20149;-61
2023/12/05 03:06:15;;;;;;;59.30;10.38;;;17.00;89.20;;;;;;4971343;28;20057;-60
2023/12/05 03:08:41;;;;;;;70.70;12.40;;;17.00;89.80;;;;;;4973325;28;20060;-62
2023/12/05 03:11:08;;;;;;;69.32;14.65;;;16.90;89.80;;;;;;4971672;28;20179;-62
2023/12/05 03:13:37;;;;;;;55.92;16.05;;;16.90;90.00;;;;;;4972057;28;20516;-62
2023/12/05 03:16:04;;;;;;;65.88;16.52;;;16.80;90.30;;;;;;4972112;28;20076;-61
2023/12/05 03:18:31;;;;;;;86.57;18.50;;;16.80;90.60;;;;;;4972316;28;20532;-62
2023/12/05 03:20:57;;;;;;;90.72;18.73;;;16.80;90.80;;;;;;4974680;28;20061;-63
2023/12/05 03:23:24;;;;;;;78.13;19.88;;;16.80;91.20;;;;;;4974797;28;20077;-62
2023/12/05 03:25:50;;;;;;;63.47;18.20;;;16.80;91.50;;;;;;4972151;28;20135;-62
2023/12/05 03:28:17;;;;;;;90.28;18.13;;;16.70;91.70;;;;;;4973784;28;20539;-61
2023/12/05 03:30:43;;;;;;;75.05;18.45;;;16.70;91.80;;;;;;4972467;28;20067;-61
2023/12/05 03:33:10;;;;;;;93.78;18.85;;;16.70;92.00;;;;;;4973811;28;20061;-61
2023/12/05 03:35:37;;;;;;;104.30;19.80;;;16.70;92.40;;;;;;4971810;28;20060;-62
2023/12/05 03:38:03;;;;;;;112.65;20.48;;;16.70;92.60;;;;;;4973088;28;20542;-63
2023/12/05 03:40:30;;;;;;;107.20;22.27;;;16.70;92.60;;;;;;4971617;28;20081;-62
2023/12/05 03:42:56;;;;;;;96.50;28.77;;;16.60;92.80;;;;;;4972662;28;20073;-63
2023/12/05 03:45:23;;;;;;;91.15;31.90;;;16.60;93.00;;;;;;4973298;28;20067;-63
2023/12/05 03:47:49;;;;;;;127.63;48.17;;;16.60;93.10;;;;;;4972378;28;20061;-61
2023/12/05 03:50:16;;;;;;;122.82;45.00;;;16.60;93.30;;;;;;4972257;28;20070;-62
2023/12/05 03:52:42;;;;;;;72.80;21.15;;;16.50;93.30;;;;;;4972256;28;20151;-64
2023/12/05 03:55:09;;;;;;;73.05;17.35;;;16.40;93.20;;;;;;4972462;28;20093;-62
2023/12/05 03:57:35;;;;;;;70.72;18.60;;;16.40;93.10;;;;;;4972982;28;20467;-62
2023/12/05 04:00:03;;;;;;;76.38;18.10;;;16.40;93.60;;;;;;4971302;28;20169;-63
2023/12/05 04:02:32;;;;;;;74.47;16.08;;;16.30;93.90;;;;;;4971070;28;20179;-63
2023/12/05 04:04:58;;;;;;;84.05;15.88;;;16.30;94.00;;;;;;4970769;28;20460;-63
2023/12/05 04:07:25;;;;;;;72.57;15.52;;;16.20;93.70;;;;;;4971498;28;20062;-63
2023/12/05 04:09:51;;;;;;;73.60;16.75;;;16.10;93.70;;;;;;4971356;28;20067;-63
2023/12/05 04:12:18;;;;;;;81.45;16.85;;;16.10;94.10;;;;;;4970659;28;20086;-62
2023/12/05 04:14:44;;;;;;;83.30;15.75;;;16.00;94.30;;;;;;4970500;28;20089;-63
2023/12/05 04:17:11;;;;;;;75.88;15.38;;;16.00;94.50;;;;;;4970338;28;20054;-62
2023/12/05 04:19:37;;;;;;;87.00;18.52;;;16.00;94.80;;;;;;4971194;28;20129;-63
2023/12/05 04:22:04;;;;;;;69.53;17.00;;;16.00;94.60;;;;;;4973637;28;20106;-63
2023/12/05 04:24:30;;;;;;;61.53;17.05;;;15.90;94.60;;;;;;4971440;28;20067;-63
2023/12/05 04:26:56;;;;;;;61.65;16.73;;;15.90;94.50;;;;;;4970763;28;20142;-64
2023/12/05 04:29:23;;;;;;;75.60;17.05;;;15.80;94.50;;;;;;4970765;28;20104;-62
2023/12/05 04:31:50;;;;;;;57.38;16.30;;;15.80;94.50;;;;;;4970808;28;20098;-63
2023/12/05 04:34:16;;;;;;;62.92;17.10;;;15.80;94.70;;;;;;4971961;28;20112;-64
2023/12/05 04:36:43;;;;;;;59.47;16.38;;;15.70;94.70;;;;;;4970754;28;20398;-64
2023/12/05 04:39:09;;;;;;;63.75;17.17;;;15.70;94.60;;;;;;4971332;28;20058;-62
2023/12/05 04:41:36;;;;;;;68.65;16.85;;;15.70;94.80;;;;;;4970816;28;20058;-66
2023/12/05 04:44:03;;;;;;;60.13;16.08;;;15.70;95.20;;;;;;4971212;28;20062;-64
2023/12/05 04:46:29;;;;;;;63.85;15.52;;;15.70;95.10;;;;;;4971292;28;20091;-61
2023/12/05 04:48:56;;;;;;;68.03;16.55;;;15.70;95.10;;;;;;4970597;28;20075;-63
2023/12/05 04:51:23;;;;;;;85.75;16.75;;;15.60;95.10;;;;;;4977184;28;20540;-63
2023/12/05 04:53:50;;;;;;;71.82;17.00;;;15.60;95.40;;;;;;4971289;28;20439;-63
2023/12/05 04:56:16;;;;;;;67.93;16.88;;;15.50;95.30;;;;;;4970875;28;20118;-61
2023/12/05 04:58:43;;;;;;;83.93;16.52;;;15.50;95.40;;;;;;4970324;28;20053;-65
2023/12/05 05:01:09;;;;;;;64.47;17.65;;;15.50;95.50;;;;;;4970694;28;20537;-63
2023/12/05 05:03:36;;;;;;;64.57;17.00;;;15.50;95.40;;;;;;4970605;28;20077;-62
2023/12/05 05:06:02;;;;;;;67.30;18.15;;;15.40;95.60;;;;;;4969049;28;20051;-63
2023/12/05 05:08:28;;;;;;;64.28;18.73;;;15.40;95.80;;;;;;4971205;28;20487;-62
2023/12/05 05:10:55;;;;;;;57.00;17.95;;;15.40;95.90;;;;;;4969911;28;20603;-63
2023/12/05 05:13:21;;;;;;;69.50;19.75;;;15.40;95.70;;;;;;4971536;28;20067;-64
2023/12/05 05:15:48;;;;;;;78.45;20.30;;;15.30;95.60;;;;;;4971017;28;20473;-63
2023/12/05 05:18:15;;;;;;;84.65;20.48;;;15.30;95.60;;;;;;4972460;28;20084;-62
2023/12/05 05:20:41;;;;;;;74.60;21.17;;;15.30;95.90;;;;;;4972251;28;20073;-62
2023/12/05 05:23:09;;;;;;;73.05;21.63;;;15.20;95.70;;;;;;4974841;28;20058;-62
2023/12/05 05:25:36;;;;;;;70.03;20.17;;;15.20;95.60;;;;;;4969961;28;20054;-62
2023/12/05 05:28:02;;;;;;;70.82;21.17;;;15.20;95.60;;;;;;4972096;28;20058;-62
2023/12/05 05:30:29;;;;;;;68.20;21.25;;;15.20;95.70;;;;;;4973543;28;20131;-62
2023/12/05 05:32:55;;;;;;;81.65;23.45;;;15.10;95.70;;;;;;4972371;28;20129;-63
2023/12/05 05:35:21;;;;;;;81.68;24.13;;;15.10;95.80;;;;;;4971462;28;20070;-63
2023/12/05 05:37:48;;;;;;;78.28;27.70;;;15.10;95.70;;;;;;4974131;28;20067;-63
2023/12/05 05:40:14;;;;;;;70.88;28.20;;;15.10;95.50;;;;;;4975262;28;20102;-62
2023/12/05 05:42:41;;;;;;;89.15;32.08;;;15.10;95.60;;;;;;4973450;28;20069;-63
2023/12/05 05:45:08;;;;;;;88.47;29.60;;;15.20;95.60;;;;;;4973312;28;20148;-62
2023/12/05 05:47:34;;;;;;;81.22;30.13;;;15.10;95.60;;;;;;4975734;28;20062;-63
2023/12/05 05:50:01;;;;;;;89.75;30.27;;;15.10;95.60;;;;;;4974565;28;20075;-66
2023/12/05 05:52:27;;;;;;;88.15;29.55;;;15.10;95.60;;;;;;4975609;28;20592;-64
2023/12/05 05:54:54;;;;;;;94.95;30.65;;;15.10;95.90;;;;;;4974379;28;20079;-61
2023/12/05 05:57:21;;;;;;;84.13;30.10;;;15.10;96.00;;;;;;4973449;28;20128;-63
2023/12/05 05:59:48;;;;;;;99.03;31.15;;;15.00;96.20;;;;;;4974304;28;20067;-63
2023/12/05 06:02:14;;;;;;;94.07;30.23;;;15.00;96.20;;;;;;4972988;28;20216;-63
2023/12/05 06:04:41;;;;;;;87.55;30.55;;;15.00;96.10;;;;;;4973283;28;20086;-68
2023/12/05 06:07:08;;;;;;;95.40;29.42;;;14.90;96.10;;;;;;4973128;28;20066;-63
2023/12/05 06:09:35;;;;;;;90.20;30.42;;;14.90;96.30;;;;;;4973660;28;20058;-62
2023/12/05 06:12:05;;;;;;;82.93;27.52;;;14.90;96.30;;;;;;4973675;28;20118;-62
2023/12/05 06:14:32;;;;;;;103.15;27.30;;;14.90;96.40;;;;;;4972518;28;20059;-63
2023/12/05 06:16:58;;;;;;;79.93;28.33;;;14.80;96.40;;;;;;4973143;28;20059;-59
2023/12/05 06:19:25;;;;;;;85.00;26.63;;;14.70;96.80;;;;;;4972735;28;20078;-61
2023/12/05 06:21:51;;;;;;;74.60;27.10;;;14.70;97.20;;;;;;4976358;28;20063;-63
2023/12/05 06:24:18;;;;;;;97.00;28.73;;;14.70;97.30;;;;;;4973307;28;20063;-62
2023/12/05 06:26:44;;;;;;;87.50;27.65;;;14.70;97.30;;;;;;4972842;28;20059;-63
2023/12/05 06:29:11;;;;;;;76.95;28.80;;;14.70;97.30;;;;;;4970583;28;20222;-61
2023/12/05 06:31:38;;;;;;;79.93;29.30;;;14.70;97.40;;;;;;4972561;28;20095;-63
2023/12/05 06:34:06;;;;;;;77.68;31.13;;;14.60;97.50;;;;;;4974039;28;20063;-62
2023/12/05 06:36:32;;;;;;;87.30;30.65;;;14.60;97.90;;;;;;4972696;28;20062;-62
2023/12/05 06:38:59;;;;;;;101.68;31.40;;;14.60;97.80;;;;;;4972753;28;20122;-64
2023/12/05 06:41:26;;;;;;;92.57;32.38;;;14.50;97.80;;;;;;4974026;28;20059;-63
2023/12/05 06:43:52;;;;;;;87.20;32.05;;;14.50;97.90;;;;;;4973672;28;20089;-58
2023/12/05 06:46:19;;;;;;;86.60;31.08;;;14.50;97.90;;;;;;4973110;28;20058;-61
2023/12/05 06:48:46;;;;;;;;;;;14.50;98.00;;;;;;4973315;28;20496;-62
2023/12/05 06:51:19;;;;;;;79.32;31.90;;;14.50;98.10;;;;;;4974389;28;19978;-59
2023/12/05 06:53:46;;;;;;;81.45;30.65;;;14.40;98.10;;;;;;4972881;28;20065;-62
2023/12/05 06:56:15;;;;;;;89.75;32.80;;;14.40;98.30;;;;;;4971953;28;20154;-61
2023/12/05 06:58:42;;;;;;;84.75;30.00;;;14.30;98.40;;;;;;4972046;28;20074;-63
2023/12/05 07:01:09;;;;;;;85.40;33.58;;;14.30;98.40;;;;;;4977119;28;20067;-61
2023/12/05 07:03:35;;;;;;;84.57;36.25;;;14.40;98.30;;;;;;4974043;28;20145;-63
2023/12/05 07:06:04;;;;;;;111.40;34.95;;;14.30;98.40;;;;;;4972940;28;20406;-63
2023/12/05 07:08:31;;;;;;;95.10;33.25;;;14.30;98.50;;;;;;4972236;28;20071;-61
2023/12/05 07:10:59;;;;;;;87.93;33.42;;;14.20;98.90;;;;;;4972004;28;20067;-63
2023/12/05 07:13:26;;;;;;;112.00;48.22;;;14.20;98.80;;;;;;4972453;28;20071;-64
2023/12/05 07:15:52;;;;;;;86.47;32.00;;;14.20;98.90;;;;;;4972188;28;20058;-63
2023/12/05 07:18:19;;;;;;;93.60;32.25;;;14.10;98.90;;;;;;4975591;28;20091;-62
2023/12/05 07:20:46;;;;;;;108.32;33.35;;;14.10;98.90;;;;;;4972321;28;20061;-63
2023/12/05 07:23:12;;;;;;;87.15;31.15;;;14.10;99.10;;;;;;4970152;28;20111;-63
2023/12/05 07:25:39;;;;;;;85.50;30.63;;;14.00;99.40;;;;;;4971784;28;20062;-62
2023/12/05 07:28:05;;;;;;;89.00;31.17;;;14.00;99.30;;;;;;4971011;28;20069;-60
2023/12/05 07:30:32;;;;;;;97.15;31.10;;;14.00;99.40;;;;;;4973867;28;20061;-63
2023/12/05 07:32:58;;;;;;;88.28;33.05;;;13.90;99.40;;;;;;4973405;28;20089;-62
2023/12/05 07:35:25;;;;;;;105.70;33.60;;;13.90;99.50;;;;;;4970910;28;20108;-63
2023/12/05 07:37:51;;;;;;;112.00;35.03;;;13.90;99.90;;;;;;4972363;28;20114;-64
2023/12/05 07:40:17;;;;;;;82.13;31.23;;;13.80;99.90;;;;;;4972496;28;20067;-64
2023/12/05 07:42:44;;;;;;;;;;;13.80;99.90;;;;;;4972738;28;20587;-63
2023/12/05 07:45:10;;;;;;;82.03;30.10;;;13.80;99.90;;;;;;4972329;28;19951;-62
2023/12/05 07:47:37;;;;;;;87.05;30.67;;;13.80;99.90;;;;;;4971941;28;20117;-63
2023/12/05 07:50:03;;;;;;;;;;;13.80;99.70;;;;;;4973381;28;20134;-62
2023/12/05 07:52:29;;;;;;;96.80;28.40;;;13.90;99.60;;;;;;4972224;28;20461;-62
2023/12/05 07:54:56;;;;;;;;;;;13.80;99.50;;;;;;4972777;28;20074;-63
2023/12/05 07:57:23;;;;;;;66.43;26.73;;;13.80;99.40;;;;;;4974097;28;19951;-63
2023/12/05 07:59:50;;;;;;;82.72;26.95;;;13.80;99.60;;;;;;4974054;28;20063;-63
2023/12/05 08:02:17;;;;;;;71.60;25.15;;;13.80;99.60;;;;;;4971476;28;20420;-65
2023/12/05 08:04:43;;;;;;;54.88;24.40;;;13.80;99.70;;;;;;4972449;28;20064;-63
2023/12/05 08:07:10;;;;;;;69.00;26.55;;;13.80;99.40;;;;;;4972495;28;20560;-60
2023/12/05 08:09:36;;;;;;;68.72;25.42;;;13.80;99.50;;;;;;4972952;28;20058;-63
2023/12/05 08:12:03;;;;;;;;;;;13.80;99.50;;;;;;4970348;28;20431;-63
2023/12/05 08:14:29;;;;;;;65.18;24.95;;;13.80;99.40;;;;;;4972247;28;19950;-63
2023/12/05 08:16:55;;;;;;;61.78;24.25;;;13.70;99.30;;;;;;4971099;28;20062;-64
2023/12/05 08:19:22;;;;;;;60.35;25.45;;;13.70;99.30;;;;;;4972419;28;20083;-64
2023/12/05 08:21:48;;;;;;;;;;;13.70;99.60;;;;;;4972309;28;20053;-62
2023/12/05 08:24:14;;;;;;;67.03;26.85;;;13.70;99.60;;;;;;4972272;28;19950;-62
2023/12/05 08:26:40;;;;;;;;;;;13.70;99.70;;;;;;4971447;28;20072;-62
2023/12/05 08:29:07;;;;;;;57.70;26.30;;;13.70;99.60;;;;;;4971246;28;19961;-62
2023/12/05 08:31:33;;;;;;;;;;;13.70;99.80;;;;;;4974674;28;20098;-64
2023/12/05 08:33:59;;;;;;;58.97;25.50;;;13.60;99.80;;;;;;4972805;28;20049;-63
2023/12/05 08:36:25;;;;;;;;;;;13.50;99.90;;;;;;4971092;28;20137;-66
2023/12/05 08:38:52;;;;;;;63.10;25.80;;;13.50;99.90;;;;;;4972281;28;19951;-62
2023/12/05 08:41:19;;;;;;;60.70;25.52;;;13.50;99.90;;;;;;4969646;28;20067;-61
2023/12/05 08:43:47;;;;;;;62.35;26.25;;;13.40;99.90;;;;;;4973033;28;20074;-62
2023/12/05 08:46:13;;;;;;;62.97;25.13;;;13.30;99.90;;;;;;4971735;28;20502;-66
2023/12/05 08:48:40;;;;;;;51.08;24.52;;;13.20;99.90;;;;;;4971957;28;20097;-64
2023/12/05 08:51:06;;;;;;;;;;;13.20;99.90;;;;;;4971134;28;20760;-63
2023/12/05 08:53:33;;;;;;;59.80;23.77;;;13.30;99.90;;;;;;4972181;28;20330;-64
2023/12/05 08:56:00;;;;;;;68.18;25.67;;;13.30;99.90;;;;;;4971330;28;20510;-62
2023/12/05 08:58:26;;;;;;;68.38;25.10;;;13.20;99.90;;;;;;4972220;28;20433;-62
2023/12/05 09:00:54;;;;;;;67.88;25.70;;;13.30;99.90;;;;;;4971250;28;20055;-60
2023/12/05 09:03:20;;;;;;;62.47;25.73;;;13.30;99.90;;;;;;4972389;28;20062;-61
2023/12/05 09:05:47;;;;;;;69.28;27.73;;;13.20;99.90;;;;;;4975687;28;20102;-61
2023/12/05 09:08:13;;;;;;;67.25;27.55;;;13.10;99.90;;;;;;4975553;28;20065;-63
2023/12/05 09:10:39;;;;;;;61.75;27.65;;;13.10;99.90;;;;;;4976542;28;20089;-61
2023/12/05 09:13:06;;;;;;;62.05;27.15;;;13.10;99.90;;;;;;4977395;28;20088;-60
2023/12/05 09:15:32;;;;;;;68.13;26.30;;;13.10;99.90;;;;;;4975309;28;20062;-62
2023/12/05 09:17:59;;;;;;;64.35;27.60;;;13.20;99.90;;;;;;4976166;28;20565;-61
2023/12/05 09:20:25;;;;;;;60.47;27.50;;;13.10;99.90;;;;;;4975138;28;20067;-62
2023/12/05 09:22:52;;;;;;;67.45;26.33;;;13.10;99.90;;;;;;4976876;28;20066;-62
2023/12/05 09:25:18;;;;;;;;;;;13.00;99.90;;;;;;4976431;28;20067;-62
2023/12/05 09:27:44;;;;;;;69.72;26.88;;;13.10;99.90;;;;;;4974286;28;20429;-62
2023/12/05 09:30:12;;;;;;;69.20;27.15;;;13.00;99.90;;;;;;4975376;28;20533;-57
2023/12/05 09:32:38;;;;;;;59.47;25.95;;;13.00;99.90;;;;;;4974018;28;20253;-60
2023/12/05 09:35:05;;;;;;;;;;;13.00;99.90;;;;;;4973362;28;20153;-64
2023/12/05 09:37:34;;;;;;;57.88;26.25;;;12.90;99.90;;;;;;4973803;28;20266;-64
2023/12/05 09:40:01;;;;;;;68.05;27.05;;;12.90;99.90;;;;;;4972946;28;20068;-62
2023/12/05 09:42:28;;;;;;;66.97;26.10;;;12.90;99.90;;;;;;4973183;28;20070;-62
2023/12/05 09:44:58;;;;;;;90.78;41.47;;;12.90;99.90;;;;;;4972852;28;20060;-61
2023/12/05 09:47:28;;;;;;;56.70;24.88;;;12.90;99.90;;;;;;4975671;28;20061;-61
2023/12/05 09:49:55;;;;;;;56.10;22.85;;;13.00;99.90;;;;;;4974159;28;20091;-62
2023/12/05 09:52:24;;;;;;;59.40;24.20;;;12.90;99.90;;;;;;4972680;28;20469;-62
2023/12/05 09:54:51;;;;;;;51.00;23.33;;;12.90;99.90;;;;;;4973767;28;20069;-64
2023/12/05 09:57:19;;;;;;;50.67;22.13;;;12.90;99.90;;;;;;4973711;28;20118;-61
2023/12/05 09:59:45;;;;;;;50.22;22.60;;;12.90;99.90;;;;;;4974559;28;20073;-61
2023/12/05 10:02:13;;;;;;;50.53;21.88;;;12.80;99.90;;;;;;4972828;28;20071;-62
2023/12/05 10:04:43;;;;;;;50.50;22.00;;;12.80;99.90;;;;;;4972320;28;20514;-61
2023/12/05 10:07:14;;;;;;;58.38;23.67;;;12.80;99.90;;;;;;4973226;28;20118;-61
2023/12/05 10:09:44;;;;;;;56.47;21.70;;;12.80;99.90;;;;;;4972159;28;20603;-62
2023/12/05 10:12:12;;;;;;;49.55;19.92;;;12.80;99.90;;;;;;4973337;28;20152;-62
2023/12/05 10:14:39;;;;;;;47.67;21.63;;;12.70;99.90;;;;;;4973215;28;20064;-61
2023/12/05 10:17:06;;;;;;;44.60;19.65;;;12.70;99.90;;;;;;4974968;28;20064;-61
2023/12/05 10:19:33;;;;;;;44.47;21.25;;;12.70;99.90;;;;;;4972954;28;20068;-61
2023/12/05 10:22:01;;;;;;;38.72;19.27;;;12.70;99.90;;;;;;4972760;28;20445;-62
2023/12/05 10:24:47;;;;;;;44.65;20.20;;;12.70;99.90;;;;;;4973494;28;20068;-62
2023/12/05 10:27:15;;;;;;;40.92;18.02;;;12.60;99.90;;;;;;4971806;28;20614;-62
2023/12/05 10:29:42;;;;;;;45.97;18.80;;;12.60;99.90;;;;;;4972321;28;20075;-62
2023/12/05 10:32:11;;;;;;;39.10;17.50;;;12.60;99.90;;;;;;4971954;28;20556;-61
2023/12/05 10:34:56;;;;;;;40.17;16.55;;;12.60;99.80;;;;;;4971457;28;20070;-60
2023/12/05 10:37:23;;;;;;;44.13;16.73;;;12.60;99.40;;;;;;4970459;28;20405;-61
2023/12/05 10:39:55;;;;;;;31.25;16.20;;;12.60;99.30;;;;;;4972071;28;20092;-60
2023/12/05 10:42:26;;;;;;;36.40;15.45;;;12.60;99.10;;;;;;4972836;28;20079;-61
2023/12/05 10:44:52;;;;;;;31.20;14.88;;;12.70;99.20;;;;;;4974709;28;20056;-61
2023/12/05 10:47:19;;;;;;;36.78;14.50;;;12.70;98.60;;;;;;4971603;28;20084;-62
2023/12/05 10:49:45;;;;;;;31.27;13.27;;;12.60;98.60;;;;;;4973429;28;20129;-62
2023/12/05 10:52:13;;;;;;;26.45;13.90;;;12.60;98.30;;;;;;4973384;28;21000;-61
2023/12/05 10:54:40;;;;;;;32.47;13.23;;;12.60;98.20;;;;;;4971223;28;20447;-62
2023/12/05 10:57:10;;;;;;;30.42;13.20;;;12.70;98.00;;;;;;4973332;28;20064;-61
2023/12/05 10:59:38;;;;;;;27.30;12.20;;;12.70;97.90;;;;;;4972541;28;20058;-61
2023/12/05 11:02:15;;;;;;;28.52;12.23;;;12.80;97.60;;;;;;4972711;28;20092;-61
2023/12/05 11:04:42;;;;;;;30.58;12.65;;;12.80;97.20;;;;;;4972900;28;20223;-60
2023/12/05 11:07:10;;;;;;;25.30;12.20;;;12.70;97.40;;;;;;4973294;28;20451;-61
2023/12/05 11:09:40;;;;;;;23.15;12.27;;;12.70;97.20;;;;;;4970882;28;20463;-62
2023/12/05 11:12:09;;;;;;;29.02;12.35;;;12.70;97.10;;;;;;4975349;28;20095;-61
2023/12/05 11:14:45;;;;;;;26.70;11.40;;;12.60;96.80;;;;;;4972292;28;20548;-62
2023/12/05 11:17:28;;;;;;;26.48;10.98;;;12.70;96.10;;;;;;4970996;28;20144;-61
2023/12/05 11:20:18;;;;;;;23.02;10.30;;;12.60;95.60;;;;;;4970369;28;20071;-61
2023/12/05 11:22:51;;;;;;;26.65;10.40;;;12.50;95.80;;;;;;4973256;28;20076;-62
2023/12/05 11:25:17;;;;;;;19.55;9.95;;;12.60;96.20;;;;;;4973373;28;20090;-63
2023/12/05 11:27:53;;;;;;;;;;;12.60;95.60;;;;;;4971676;28;20434;-62
2023/12/05 11:30:25;;;;;;;21.90;10.73;;;12.60;95.40;;;;;;4971248;28;20057;-61
2023/12/05 11:33:17;;;;;;;21.77;9.93;;;12.50;95.10;;;;;;4971051;28;20089;-61
2023/12/05 11:35:43;;;;;;;25.13;10.50;;;12.50;95.00;;;;;;4969347;28;20087;-61
2023/12/05 11:38:13;;;;;;;;;;;12.50;95.10;;;;;;4974137;28;20433;-62
2023/12/05 11:40:42;;;;;;;23.15;9.88;;;12.50;94.90;;;;;;4974402;28;20050;-61
2023/12/05 11:43:13;;;;;;;107.07;14.13;;;12.50;94.90;;;;;;4971571;28;20143;-61
2023/12/05 11:45:44;;;;;;;97.43;12.88;;;12.50;95.00;;;;;;4970568;28;20541;-61
2023/12/05 11:48:15;;;;;;;65.95;11.57;;;12.50;95.00;;;;;;4971843;28;20059;-62
2023/12/05 11:50:43;;;;;;;46.63;10.10;;;12.50;95.00;;;;;;4971209;28;20056;-64
2023/12/05 11:53:14;;;;;;;53.88;10.60;;;12.40;94.90;;;;;;4970195;28;20109;-61
2023/12/05 11:55:42;;;;;;;47.80;11.00;;;12.40;95.10;;;;;;4970962;28;20436;-61
2023/12/05 11:58:28;;;;;;;38.72;9.63;;;12.40;95.20;;;;;;4973051;28;20064;-59
2023/12/05 12:01:14;;;;;;;31.40;10.20;;;12.50;95.30;;;;;;4970526;28;20110;-61
2023/12/05 12:03:53;;;;;;;37.90;10.65;;;12.50;95.40;;;;;;4970387;28;20083;-62
2023/12/05 12:06:22;;;;;;;27.63;9.70;;;12.50;95.30;;;;;;4970204;28;20423;-61
2023/12/05 12:08:51;;;;;;;33.15;10.15;;;12.50;95.50;;;;;;4971090;28;20119;-61
2023/12/05 12:11:20;;;;;;;28.88;10.02;;;12.40;95.60;;;;;;4972883;28;20100;-61
2023/12/05 12:13:48;;;;;;;29.17;9.70;;;12.40;95.50;;;;;;4973367;28;20557;-62
2023/12/05 12:16:19;;;;;;;34.78;10.05;;;12.30;95.70;;;;;;4970047;28;20066;-61
2023/12/05 12:18:46;;;;;;;25.15;10.93;;;12.40;95.70;;;;;;4969423;28;20072;-61
2023/12/05 12:21:13;;;;;;;21.05;9.93;;;12.30;95.90;;;;;;4970356;28;20449;-62
2023/12/05 12:23:39;;;;;;;31.95;10.95;;;12.30;95.70;;;;;;4971493;28;20073;-61
2023/12/05 12:26:10;;;;;;;28.50;10.30;;;12.30;95.60;;;;;;4971302;28;20074;-61
2023/12/05 12:28:36;;;;;;;24.60;9.93;;;12.20;95.80;;;;;;4970613;28;20092;-61
2023/12/05 12:31:04;;;;;;;35.00;10.55;;;12.20;95.80;;;;;;4968188;28;20139;-62
2023/12/05 12:33:37;;;;;;;27.75;10.23;;;12.20;96.00;;;;;;4972561;28;20149;-64
2023/12/05 12:36:05;;;;;;;25.40;10.13;;;12.20;96.00;;;;;;4970744;28;20446;-60